createdAt,value
2018-01-21T00:00:49.310Z,23.97
2018-01-21T00:02:55.380Z,22.87
2018-01-21T00:05:01.495Z,22.90
2018-01-21T00:07:07.994Z,20.70
2018-01-21T00:09:13.911Z,20.23
2018-01-21T00:11:19.643Z,19.07
2018-01-21T00:13:25.621Z,19.53
2018-01-21T00:15:31.927Z,18.97
2018-01-21T00:17:37.840Z,16.13
2018-01-21T00:19:43.407Z,18.50
2018-01-21T00:21:49.367Z,116.90
2018-01-21T00:23:55.067Z,152.20
2018-01-21T00:26:00.785Z,142.30
2018-01-21T00:28:06.929Z,159.50
2018-01-21T00:30:12.917Z,171.47
2018-01-21T00:32:20.303Z,158.13
2018-01-21T00:34:26.027Z,147.90
2018-01-21T00:36:32.139Z,135.57
2018-01-21T00:38:38.353Z,123.97
2018-01-21T00:40:44.040Z,121.30
2018-01-21T00:42:50.286Z,109.77
2018-01-21T00:44:56.549Z,98.57
2018-01-21T00:47:06.179Z,91.50
2018-01-21T00:49:19.146Z,87.87
2018-01-21T00:51:25.271Z,80.00
2018-01-21T00:56:05.892Z,68.47
2018-01-21T00:58:19.578Z,65.47
2018-01-21T01:00:26.301Z,63.40
2018-01-21T01:02:32.839Z,60.50
2018-01-21T01:04:38.634Z,55.13
2018-01-21T01:06:44.270Z,54.70
2018-01-21T01:08:51.662Z,50.30
2018-01-21T01:10:57.668Z,51.83
2018-01-21T01:13:03.491Z,48.57
2018-01-21T01:15:09.954Z,47.10
2018-01-21T01:17:18.965Z,45.77
2018-01-21T01:19:25.707Z,42.03
2018-01-21T01:21:31.504Z,41.10
2018-01-21T01:23:37.608Z,39.87
2018-01-21T01:25:44.409Z,36.00
2018-01-21T01:27:50.793Z,35.73
2018-01-21T01:29:56.445Z,33.53
2018-01-21T01:32:02.323Z,33.33
2018-01-21T01:34:08.247Z,34.53
2018-01-21T01:36:13.889Z,31.80
2018-01-21T01:38:26.397Z,31.10
2018-01-21T01:40:32.254Z,29.07
2018-01-21T01:42:38.047Z,28.13
2018-01-21T01:44:43.832Z,25.73
2018-01-21T01:46:49.899Z,26.17
2018-01-21T01:48:58.315Z,25.57
2018-01-21T01:51:04.035Z,24.07
2018-01-21T01:53:10.241Z,22.80
2018-01-21T01:55:16.014Z,23.00
2018-01-21T01:57:21.626Z,21.50
2018-01-21T01:59:28.517Z,22.07
2018-01-21T02:01:35.005Z,21.00
2018-01-21T02:03:42.043Z,20.30
2018-01-21T02:05:47.922Z,19.07
2018-01-21T02:07:53.788Z,17.60
2018-01-21T02:10:00.212Z,19.10
2018-01-21T02:12:09.452Z,19.07
2018-01-21T02:14:15.591Z,16.60
2018-01-21T02:16:22.385Z,18.57
2018-01-21T02:18:29.072Z,15.73
2018-01-21T02:20:37.494Z,15.20
2018-01-21T02:22:44.601Z,16.63
2018-01-21T02:24:50.458Z,14.33
2018-01-21T02:26:57.249Z,15.47
2018-01-21T02:29:03.537Z,14.43
2018-01-21T02:31:09.555Z,14.27
2018-01-21T02:33:15.632Z,13.73
2018-01-21T02:35:21.995Z,12.60
2018-01-21T02:37:28.228Z,12.80
2018-01-21T02:39:34.532Z,12.90
2018-01-21T02:41:40.155Z,11.33
2018-01-21T02:43:48.927Z,12.00
2018-01-21T02:45:54.657Z,11.90
2018-01-21T02:48:00.342Z,10.47
2018-01-21T02:50:09.866Z,10.27
2018-01-21T02:52:15.723Z,10.60
2018-01-21T02:54:22.048Z,10.13
2018-01-21T02:56:29.875Z,10.00
2018-01-21T02:58:37.441Z,10.27
2018-01-21T03:00:45.281Z,9.53
2018-01-21T03:02:51.658Z,9.63
2018-01-21T03:04:58.239Z,9.60
2018-01-21T03:07:05.008Z,8.73
2018-01-21T03:09:10.741Z,9.03
2018-01-21T03:11:17.057Z,9.00
2018-01-21T03:13:23.327Z,8.37
2018-01-21T03:15:29.362Z,7.87
2018-01-21T03:17:35.250Z,8.27
2018-01-21T03:19:41.051Z,7.90
2018-01-21T03:21:47.357Z,8.40
2018-01-21T03:23:53.387Z,7.80
2018-01-21T03:25:59.202Z,8.20
2018-01-21T03:28:05.666Z,7.73
2018-01-21T03:30:11.654Z,7.37
2018-01-21T03:32:17.284Z,7.50
2018-01-21T03:34:23.218Z,7.40
2018-01-21T03:36:29.405Z,7.83
2018-01-21T03:38:35.300Z,7.00
2018-01-21T03:40:43.012Z,7.20
2018-01-21T03:42:48.735Z,7.10
2018-01-21T03:44:55.042Z,6.50
2018-01-21T03:47:01.981Z,6.30
2018-01-21T03:49:08.502Z,6.63
2018-01-21T03:51:14.587Z,6.50
2018-01-21T03:53:20.757Z,5.53
2018-01-21T03:55:26.394Z,6.10
2018-01-21T03:57:32.397Z,6.37
2018-01-21T03:59:38.221Z,5.60
2018-01-21T04:01:44.401Z,5.80
2018-01-21T04:03:49.990Z,5.10
2018-01-21T04:05:56.574Z,5.63
2018-01-21T04:08:04.379Z,5.50
2018-01-21T04:10:10.766Z,5.30
2018-01-21T04:12:17.428Z,5.47
2018-01-21T04:14:23.310Z,5.27
2018-01-21T04:16:29.561Z,5.07
2018-01-21T04:18:35.287Z,5.30
2018-01-21T04:20:41.495Z,4.87
2018-01-21T04:22:47.300Z,5.73
2018-01-21T04:24:53.493Z,5.13
2018-01-21T04:26:59.573Z,5.07
2018-01-21T04:29:06.297Z,5.10
2018-01-21T04:31:13.107Z,5.43
2018-01-21T04:33:19.408Z,4.93
2018-01-21T04:35:25.639Z,4.90
2018-01-21T04:37:33.781Z,4.83
2018-01-21T04:39:39.761Z,4.40
2018-01-21T04:41:46.846Z,4.23
2018-01-21T04:43:53.554Z,3.90
2018-01-21T04:45:59.964Z,5.13
2018-01-21T04:48:06.044Z,4.43
2018-01-21T04:50:11.728Z,4.27
2018-01-21T04:52:17.419Z,4.40
2018-01-21T04:56:40.629Z,4.77
2018-01-21T04:58:46.753Z,4.40
2018-01-21T16:10:42.694Z,401.90
2018-01-21T16:12:49.726Z,379.83
2018-01-21T16:14:57.309Z,391.83
2018-01-21T16:17:06.136Z,383.30
2018-01-21T16:19:12.461Z,374.53
2018-01-21T16:21:20.021Z,352.40
2018-01-21T16:23:27.247Z,348.40
2018-01-21T16:25:33.158Z,339.17
2018-01-21T16:27:40.346Z,324.40
2018-01-21T16:29:48.606Z,314.47
2018-01-21T16:31:54.596Z,306.60
2018-01-21T16:34:00.543Z,292.80
2018-01-21T16:36:06.498Z,283.63
2018-01-21T16:39:15.794Z,267.03
2018-01-21T16:41:23.010Z,258.03
2018-01-21T16:43:32.420Z,255.80
2018-01-21T16:45:39.010Z,243.23
2018-01-21T16:47:45.055Z,234.97
2018-01-21T16:49:51.181Z,222.33
2018-01-21T16:52:03.241Z,213.53
2018-01-21T16:54:09.771Z,206.77
2018-01-21T16:56:15.792Z,196.20
2018-01-21T16:58:27.821Z,190.83
2018-01-21T17:00:35.042Z,180.40
2018-01-21T17:02:41.194Z,175.70
2018-01-21T17:04:51.255Z,165.77
2018-01-21T17:06:59.029Z,164.33
2018-01-21T17:09:14.278Z,157.03
2018-01-21T17:11:21.330Z,149.07
2018-01-21T17:13:29.789Z,141.60
2018-01-21T17:16:02.705Z,641.80
2018-01-21T17:18:21.364Z,756.17
2018-01-21T17:20:34.343Z,591.73
2018-01-21T17:22:43.034Z,493.67
2018-01-21T17:24:54.156Z,443.27
2018-01-21T17:27:15.049Z,421.63
2018-01-21T17:31:58.204Z,391.73
2018-01-21T17:34:09.545Z,380.03
2018-01-21T17:36:19.443Z,363.47
2018-01-21T17:38:33.468Z,351.63
2018-01-21T17:40:40.893Z,339.43
2018-01-21T17:42:51.524Z,321.17
2018-01-21T17:45:02.586Z,315.73
2018-01-21T17:47:11.620Z,303.63
2018-01-21T17:49:20.993Z,292.93
2018-01-21T17:51:40.400Z,284.07
2018-01-21T17:53:49.761Z,269.10
2018-01-21T17:55:56.533Z,262.27
2018-01-21T17:58:02.989Z,248.30
2018-01-21T18:00:19.373Z,245.53
2018-01-21T18:02:29.767Z,233.63
2018-01-21T18:04:37.724Z,228.50
2018-01-21T18:06:46.866Z,220.53
2018-01-21T18:08:54.500Z,212.20
2018-01-21T18:11:03.777Z,201.77
2018-01-21T18:13:11.738Z,194.23
2018-01-21T18:15:19.627Z,182.30
2018-01-21T18:17:27.653Z,187.33
2018-01-21T18:19:35.915Z,179.17
2018-01-21T18:21:42.716Z,177.73
2018-01-21T18:23:57.001Z,172.87
2018-01-21T18:26:08.716Z,168.43
2018-01-21T18:28:33.516Z,164.20
2018-01-21T18:30:43.744Z,155.70
2018-01-21T18:33:42.296Z,143.20
2018-01-21T18:36:08.720Z,131.07
2018-01-21T18:38:21.693Z,124.40
2018-01-21T18:41:07.055Z,303.97
2018-01-21T18:43:21.841Z,607.10
2018-01-21T18:45:56.349Z,629.80
2018-01-21T18:48:30.648Z,532.37
2018-01-21T18:50:38.163Z,485.60
2018-01-21T18:52:47.422Z,808.73
2018-01-21T18:54:54.667Z,656.97
2018-01-21T18:57:03.418Z,793.20
2018-01-21T18:59:11.667Z,672.43
2018-01-21T19:01:27.558Z,642.53
2018-01-21T19:03:43.501Z,609.90
2018-01-21T19:08:16.345Z,578.53
2018-01-21T19:10:34.328Z,559.87
2018-01-21T19:12:42.504Z,691.97
2018-01-21T19:14:55.417Z,799.70
2018-01-21T19:17:09.203Z,793.73
2018-01-21T19:21:45.864Z,713.73
2018-01-21T19:23:57.169Z,649.60
2018-01-21T19:26:07.160Z,633.43
2018-01-21T19:28:17.459Z,619.37
2018-01-21T19:30:28.220Z,593.50
2018-01-21T19:32:42.856Z,582.33
2018-01-21T19:35:09.576Z,659.47
2018-01-21T19:37:41.639Z,677.10
2018-01-21T19:40:03.355Z,718.93
2018-01-21T19:42:17.784Z,699.87
2018-01-21T19:44:28.918Z,671.60
2018-01-21T19:46:36.484Z,659.77
2018-01-21T19:48:46.171Z,655.17
2018-01-21T19:50:57.479Z,633.87
2018-01-21T19:53:05.848Z,618.60
2018-01-21T19:55:14.081Z,607.50
2018-01-21T19:57:23.370Z,602.07
2018-01-21T19:59:40.102Z,472.23
2018-01-21T20:01:50.394Z,365.30
2018-01-21T20:04:09.120Z,361.30
2018-01-21T20:06:17.041Z,362.60
2018-01-21T20:08:23.101Z,347.50
2018-01-21T20:10:34.637Z,333.93
2018-01-21T20:12:44.136Z,326.47
2018-01-21T20:14:52.810Z,294.53
2018-01-21T20:17:15.268Z,301.87
2018-01-21T20:19:25.856Z,257.50
2018-01-21T20:21:32.947Z,242.77
2018-01-21T20:23:40.579Z,237.27
2018-01-21T20:25:50.598Z,219.77
2018-01-21T20:27:59.199Z,205.10
2018-01-21T20:30:17.655Z,188.33
2018-01-21T20:32:38.901Z,168.83
2018-01-21T20:34:56.500Z,158.50
2018-01-21T20:37:04.708Z,152.10
2018-01-21T20:39:13.318Z,149.27
2018-01-21T20:41:26.602Z,136.10
2018-01-21T20:43:32.888Z,132.17
2018-01-21T20:45:57.730Z,117.53
2018-01-21T20:53:14.952Z,93.50
2018-01-21T20:55:32.336Z,89.73
2018-01-21T21:00:06.649Z,78.43
2018-01-21T21:02:14.677Z,168.27
2018-01-21T21:04:22.310Z,101.13
2018-01-21T21:06:31.103Z,347.47
2018-01-21T21:08:39.526Z,675.27
2018-01-21T21:10:47.420Z,88.93
2018-01-21T21:12:54.533Z,105.37
2018-01-21T21:15:07.469Z,60.60
2018-01-21T21:17:17.527Z,51.60
2018-01-21T21:19:28.014Z,46.33
2018-01-21T21:21:37.635Z,44.73
2018-01-21T21:23:45.162Z,40.37
2018-01-21T21:25:52.904Z,39.60
2018-01-21T21:28:02.189Z,40.17
2018-01-21T21:30:08.951Z,171.43
2018-01-21T21:32:16.139Z,35.70
2018-01-21T21:34:22.604Z,34.00
2018-01-21T21:36:32.146Z,117.33
2018-01-21T21:38:38.282Z,38.23
2018-01-21T21:40:44.658Z,39.30
2018-01-21T21:42:51.913Z,29.73
2018-01-21T21:45:01.812Z,715.37
2018-01-21T21:47:08.877Z,47.83
2018-01-21T21:54:01.354Z,767.83
2018-01-21T21:58:37.184Z,480.77
2018-01-21T22:00:46.649Z,24.10
2018-01-21T22:02:53.771Z,178.53
2018-01-21T22:05:02.840Z,149.30
2018-01-21T22:07:22.515Z,19.67
2018-01-21T22:09:34.748Z,17.40
2018-01-21T22:11:41.348Z,16.93
2018-01-21T22:13:48.441Z,111.80
2018-01-21T22:15:56.137Z,231.10
2018-01-21T22:18:02.439Z,20.13
2018-01-21T22:20:09.237Z,15.90
2018-01-21T22:22:18.374Z,26.93
2018-01-21T22:24:26.710Z,53.60
2018-01-21T22:26:33.290Z,14.60
2018-01-21T22:28:39.853Z,13.33
2018-01-21T22:30:48.624Z,12.73
2018-01-21T22:32:56.214Z,275.57
2018-01-21T22:35:02.129Z,459.80
2018-01-21T22:37:08.175Z,22.13
2018-01-21T22:39:14.338Z,14.83
2018-01-21T22:41:20.348Z,12.17
2018-01-21T22:43:29.136Z,877.47
2018-01-21T22:45:36.366Z,12.93
2018-01-21T22:47:43.510Z,10.70
2018-01-21T22:49:50.862Z,388.13
2018-01-21T22:51:59.301Z,204.77
2018-01-21T22:54:11.560Z,12.33
2018-01-21T22:56:17.936Z,23.60
2018-01-21T22:58:26.422Z,280.00
2018-01-21T23:00:32.795Z,17.37
2018-01-21T23:02:39.102Z,615.80
2018-01-21T23:04:45.719Z,863.13
2018-01-21T23:09:27.132Z,110.20
2018-01-21T23:11:33.353Z,414.93
2018-01-21T23:13:41.047Z,387.93
2018-01-21T23:15:49.182Z,484.03
2018-01-21T23:17:55.675Z,494.37
2018-01-21T23:20:02.199Z,447.57
2018-01-21T23:22:08.408Z,612.57
2018-01-21T23:24:15.716Z,58.37
2018-01-21T23:26:21.978Z,141.27
2018-01-21T23:28:31.078Z,297.00
2018-01-21T23:30:37.904Z,597.07
2018-01-21T23:32:43.987Z,21.23
2018-01-21T23:34:50.471Z,163.80
2018-01-21T23:36:58.701Z,758.07
2018-01-21T23:39:05.453Z,309.83
2018-01-21T23:41:11.378Z,515.77
2018-01-21T23:43:17.360Z,287.30
2018-01-21T23:45:23.309Z,51.20
2018-01-21T23:47:31.165Z,15.40
2018-01-21T23:49:37.353Z,11.20
2018-01-21T23:51:43.526Z,10.10
2018-01-21T23:53:50.172Z,9.17
2018-01-21T23:55:56.910Z,9.30
2018-01-21T23:58:02.741Z,8.20
